LTCW

Hakkari–Yüksekova Airport

Yüksekova, Turkey
TAF LTCW 230740Z 2309/2318 VRB02KT 9999 SCT035
Issued Valid From Valid To
Apr-23 @ 07:40 UTC
(2 hours ago)
Apr-23 @ 09:00 UTC
(35 minutes ago)
Apr-23 @ 18:00 UTC
(in 8 hours)
Apr-23 @ 09:00 to Apr-23 @ 18:00
TAF LTCW 230740Z 2309/2318 VRB02KT 9999 SCT035
Wind Visibility Clouds
Variable at 2 knots 10,000+ meters
  • Scattered at 3,500' AGL
TAF LTCW 230740Z 2309/2318 VRB02KT 9999 SCT035
Issued Apr-23 @ 07:40 UTC
(2 hours ago)
Valid From Apr-23 @ 09:00 UTC
(35 minutes ago)
Valid To Apr-23 @ 18:00 UTC
(in 8 hours)
Apr-23 @ 09:00 - Apr-23 @ 18:00
Wind Visibility
Variable at 2 knots 10,000+ meters
Clouds
  • Scattered at 3,500' AGL